createdAt,value
2018-05-08T08:27:56.385Z,44.80
2018-05-08T08:30:27.137Z,45.77
2018-05-08T08:32:56.881Z,45.67
2018-05-08T08:35:26.577Z,47.70
2018-05-08T08:37:56.348Z,44.60
2018-05-08T08:40:26.101Z,45.62
2018-05-08T08:42:55.928Z,46.47
2018-05-08T08:45:25.524Z,44.43
2018-05-08T08:47:55.410Z,44.70
2018-05-08T08:50:25.174Z,44.59
2018-05-08T08:52:55.073Z,44.07
2018-05-08T08:55:24.795Z,43.09
2018-05-08T08:57:54.628Z,42.44
2018-05-08T09:00:24.439Z,41.17
2018-05-08T09:02:54.129Z,38.97
2018-05-08T09:05:24.303Z,39.68
2018-05-08T09:07:53.953Z,39.00
2018-05-08T09:10:23.998Z,38.39
2018-05-08T09:12:53.761Z,38.06
2018-05-08T09:15:23.530Z,38.02
2018-05-08T09:17:53.312Z,37.78
2018-05-08T09:20:23.113Z,36.96
2018-05-08T09:22:52.835Z,36.96
2018-05-08T09:25:22.606Z,37.29
2018-05-08T09:27:52.467Z,39.31
2018-05-08T09:30:22.355Z,38.25
2018-05-08T09:32:52.032Z,35.98
2018-05-08T09:35:21.818Z,34.19
2018-05-08T09:37:51.508Z,34.79
2018-05-08T09:40:21.743Z,32.95
2018-05-08T09:42:51.589Z,33.85
2018-05-08T09:45:21.153Z,33.11
2018-05-08T09:47:50.894Z,32.81
2018-05-08T09:50:20.672Z,32.30
2018-05-08T09:52:50.296Z,34.52
2018-05-08T09:55:20.293Z,32.19
2018-05-08T09:57:50.975Z,31.54
2018-05-08T10:00:20.689Z,30.83
2018-05-08T10:02:50.501Z,31.05
2018-05-08T10:05:20.297Z,32.44
2018-05-08T10:07:50.227Z,30.90
2018-05-08T10:10:20.037Z,31.40
2018-05-08T10:12:49.733Z,31.74
2018-05-08T10:15:20.205Z,33.38
2018-05-08T10:17:49.997Z,31.85
2018-05-08T10:20:19.811Z,33.11
2018-05-08T10:22:49.568Z,33.13
2018-05-08T10:25:19.263Z,32.05
2018-05-08T10:27:48.974Z,32.51
2018-05-08T10:30:18.658Z,31.01
2018-05-08T10:32:48.536Z,31.86
2018-05-08T10:35:18.205Z,32.25
2018-05-08T10:37:47.878Z,32.21
2018-05-08T10:40:17.811Z,30.81
2018-05-08T10:42:47.544Z,30.87
2018-05-08T10:45:18.333Z,30.56
2018-05-08T10:47:48.112Z,29.54
2018-05-08T10:50:18.942Z,30.68
2018-05-08T10:52:48.703Z,30.69
2018-05-08T10:55:18.466Z,31.32
2018-05-08T10:57:48.451Z,30.49
2018-05-08T11:00:18.069Z,31.07
2018-05-08T11:02:47.717Z,29.97
2018-05-08T11:05:17.540Z,27.77
2018-05-08T11:07:47.340Z,29.99
2018-05-08T11:10:17.083Z,28.08
2018-05-08T11:12:46.838Z,28.78
2018-05-08T11:15:16.570Z,28.24
2018-05-08T11:17:46.344Z,27.28
2018-05-08T11:20:16.131Z,27.91
2018-05-08T11:22:45.944Z,26.81
2018-05-08T11:25:15.682Z,24.08
2018-05-08T11:27:45.474Z,23.82
2018-05-08T11:30:15.376Z,23.10
2018-05-08T11:32:45.495Z,20.40
2018-05-08T11:35:16.656Z,20.29
2018-05-08T11:37:46.753Z,19.91
2018-05-08T11:40:18.066Z,19.59
2018-05-08T11:42:48.305Z,20.33
2018-05-08T11:45:18.479Z,19.77
2018-05-08T11:47:48.770Z,19.99
2018-05-08T11:50:19.154Z,20.33
2018-05-08T11:52:49.370Z,19.14
2018-05-08T11:55:19.799Z,18.82
2018-05-08T11:57:49.843Z,18.73
2018-05-08T12:00:19.754Z,18.61
2018-05-08T12:02:49.417Z,18.29
2018-05-08T12:05:19.309Z,17.88
2018-05-08T12:07:49.258Z,17.11
2018-05-08T12:10:19.182Z,15.76
2018-05-08T12:12:48.969Z,16.87
2018-05-08T12:15:18.650Z,16.69
2018-05-08T12:17:48.284Z,16.21
2018-05-08T12:20:17.974Z,16.67
2018-05-08T12:22:47.608Z,16.29
2018-05-08T12:25:17.404Z,15.23
2018-05-08T12:27:47.065Z,15.14
2018-05-08T12:30:16.926Z,15.72
2018-05-08T12:32:46.656Z,15.50
2018-05-08T12:35:17.230Z,14.97
2018-05-08T12:37:48.064Z,15.05
2018-05-08T12:40:17.639Z,14.53
2018-05-08T12:42:47.341Z,15.08
2018-05-08T12:45:17.041Z,15.34
2018-05-08T12:47:46.925Z,15.23
2018-05-08T12:50:16.814Z,14.70
2018-05-08T12:52:46.633Z,14.55
2018-05-08T12:55:16.420Z,14.38
2018-05-08T12:57:46.212Z,15.09
2018-05-08T13:00:16.018Z,17.15
2018-05-08T13:02:45.743Z,16.11
2018-05-08T13:05:15.704Z,15.48
2018-05-08T13:07:45.509Z,16.33
2018-05-08T13:10:15.159Z,17.21
2018-05-08T13:12:45.041Z,16.86
2018-05-08T13:15:14.691Z,15.90
2018-05-08T13:17:44.491Z,15.52
2018-05-08T13:20:14.150Z,14.32
2018-05-08T13:22:43.826Z,16.43
2018-05-08T13:25:13.557Z,15.16
2018-05-08T13:27:43.747Z,14.01
2018-05-08T13:30:13.435Z,13.86
2018-05-08T13:32:43.118Z,14.33
2018-05-08T13:35:12.901Z,14.11
2018-05-08T13:37:42.751Z,16.27
2018-05-08T13:40:12.701Z,14.89
2018-05-08T13:42:42.338Z,16.30
2018-05-08T13:45:12.065Z,15.55
2018-05-08T13:47:41.853Z,15.23
2018-05-08T13:50:11.595Z,15.98
2018-05-08T13:52:41.404Z,14.28
2018-05-08T13:55:11.368Z,14.68
2018-05-08T13:57:41.053Z,14.39
2018-05-08T14:00:10.739Z,15.14
2018-05-08T14:02:40.476Z,14.85
2018-05-08T14:05:10.368Z,14.42
2018-05-08T14:07:40.227Z,13.75
2018-05-08T14:10:09.940Z,14.17
2018-05-08T14:12:39.638Z,14.23
2018-05-08T14:15:09.391Z,14.26
2018-05-08T14:17:39.077Z,12.99
2018-05-08T14:20:08.923Z,13.89
2018-05-08T14:22:40.484Z,14.69
2018-05-08T14:25:10.435Z,14.63
2018-05-08T14:27:40.514Z,14.79
2018-05-08T14:30:10.355Z,15.14
2018-05-08T14:32:40.059Z,15.20
2018-05-08T14:35:09.838Z,14.27
2018-05-08T14:37:40.188Z,15.57
2018-05-08T14:40:09.950Z,15.87
2018-05-08T14:42:39.978Z,15.67
2018-05-08T14:45:10.093Z,15.75
2018-05-08T14:47:39.830Z,15.59
2018-05-08T14:50:09.649Z,15.59
2018-05-08T14:52:39.354Z,14.90
2018-05-08T14:55:10.067Z,13.77
2018-05-08T14:57:39.807Z,14.30
2018-05-08T15:00:10.027Z,14.34
2018-05-08T15:02:39.996Z,14.14
2018-05-08T15:05:09.849Z,13.58
2018-05-08T15:07:39.711Z,13.19
2018-05-08T15:10:10.204Z,13.46
2018-05-08T15:12:39.773Z,12.49
2018-05-08T15:15:09.728Z,12.89
2018-05-08T15:17:39.502Z,13.31
2018-05-08T15:20:09.146Z,12.40
2018-05-08T15:22:39.025Z,12.48
2018-05-08T15:25:08.643Z,11.81
2018-05-08T15:27:38.293Z,11.63
2018-05-08T15:30:08.036Z,13.51
2018-05-08T15:32:38.897Z,14.66
2018-05-08T15:35:08.559Z,16.49
2018-05-08T15:37:43.864Z,15.96
2018-05-08T15:40:15.761Z,15.67
2018-05-08T15:42:46.521Z,16.91
2018-05-08T15:45:16.338Z,15.96
2018-05-08T15:47:46.038Z,16.67
2018-05-08T15:50:15.752Z,15.31
2018-05-08T15:52:45.373Z,14.63
2018-05-08T15:55:16.260Z,14.30
2018-05-08T15:57:46.948Z,14.12
2018-05-08T16:00:16.638Z,13.40
2018-05-08T16:02:47.218Z,13.58
2018-05-08T16:05:16.958Z,14.01
2018-05-08T16:07:46.687Z,14.15
2018-05-08T16:10:16.560Z,15.06
2018-05-08T16:12:46.248Z,15.81
2018-05-08T16:15:15.738Z,14.58
2018-05-08T16:17:45.542Z,15.18
2018-05-08T16:20:15.351Z,15.36
2018-05-08T16:22:45.092Z,15.95
2018-05-08T16:25:14.938Z,15.59
2018-05-08T16:27:44.646Z,16.41
2018-05-08T16:30:14.571Z,15.87
2018-05-08T16:32:44.247Z,16.84
2018-05-08T16:35:13.900Z,15.94
2018-05-08T16:37:43.704Z,16.25
2018-05-08T16:40:13.403Z,16.90
2018-05-08T16:42:43.117Z,17.48
2018-05-08T16:45:12.835Z,17.49
2018-05-08T16:47:42.522Z,18.63
2018-05-08T16:50:12.309Z,18.45
2018-05-08T16:52:42.161Z,18.94
2018-05-08T16:55:13.934Z,19.36
2018-05-08T16:57:43.646Z,20.48
2018-05-08T17:00:13.315Z,21.30
2018-05-08T17:02:43.165Z,22.94
2018-05-08T17:05:12.881Z,24.41
2018-05-08T17:07:42.600Z,25.82
2018-05-08T17:10:12.299Z,26.07
2018-05-08T17:12:42.023Z,26.80
2018-05-08T17:15:11.894Z,28.04
2018-05-08T17:17:41.619Z,27.33
2018-05-08T17:20:11.407Z,28.87
2018-05-08T17:22:41.077Z,28.79
2018-05-08T17:25:10.697Z,28.77
2018-05-08T17:27:40.479Z,29.18
2018-05-08T17:30:10.309Z,29.69
2018-05-08T17:32:40.132Z,29.79
2018-05-08T17:35:09.947Z,29.79
2018-05-08T17:37:39.639Z,31.04
2018-05-08T17:40:09.422Z,30.54
2018-05-08T17:42:39.040Z,31.20
2018-05-08T17:52:06.114Z,33.39
2018-05-08T17:54:35.734Z,33.96
2018-05-08T17:57:05.676Z,34.89
2018-05-08T17:59:35.447Z,35.71
2018-05-08T18:02:05.457Z,36.08
2018-05-08T18:04:35.110Z,36.90
2018-05-08T18:07:04.952Z,37.74
2018-05-08T18:09:34.639Z,38.29
2018-05-08T18:12:04.474Z,39.17
2018-05-08T18:14:34.183Z,38.90
2018-05-08T18:17:03.838Z,39.77
2018-05-08T18:19:33.634Z,39.57
2018-05-08T18:22:03.319Z,40.55
2018-05-08T18:24:32.999Z,41.12
2018-05-08T18:27:02.790Z,42.67
2018-05-08T18:29:32.466Z,43.08
2018-05-08T18:32:02.308Z,43.20
2018-05-08T18:34:31.957Z,44.17
2018-05-08T18:37:01.758Z,45.01
2018-05-08T18:39:31.752Z,44.18
2018-05-08T18:42:01.522Z,44.87
2018-05-08T18:44:31.306Z,44.76
2018-05-08T18:47:01.034Z,45.17
2018-05-08T18:49:30.789Z,46.26
2018-05-08T18:52:00.485Z,46.72
2018-05-08T18:54:30.210Z,49.05
2018-05-08T18:56:59.977Z,49.45
2018-05-08T18:59:29.790Z,51.05
2018-05-08T19:02:00.748Z,50.77
2018-05-08T19:04:30.508Z,50.95
2018-05-08T19:07:00.473Z,51.11
2018-05-08T19:09:30.038Z,50.54
2018-05-08T19:12:05.929Z,51.19
2018-05-08T19:14:47.335Z,51.78
2018-05-08T19:17:17.412Z,51.59
2018-05-08T19:20:17.842Z,51.00
2018-05-08T19:22:47.654Z,50.81
2018-05-08T19:25:17.370Z,51.44
2018-05-08T19:27:47.106Z,51.15
2018-05-08T19:30:21.755Z,51.89
2018-05-08T19:32:51.457Z,51.84
2018-05-08T19:35:25.328Z,51.77
2018-05-08T19:38:15.002Z,51.99
2018-05-08T19:40:44.790Z,51.61
2018-05-08T19:43:14.420Z,51.42
2018-05-08T19:45:44.153Z,52.15
2018-05-08T19:48:13.951Z,51.85
2018-05-08T19:50:43.797Z,52.13
2018-05-08T19:53:17.816Z,52.56
2018-05-08T19:55:49.416Z,53.12
2018-05-08T19:58:20.096Z,52.44
2018-05-08T20:00:49.897Z,53.39
2018-05-08T20:03:19.649Z,53.91
2018-05-08T20:05:49.370Z,53.36
2018-05-08T20:08:19.068Z,53.73
2018-05-08T20:10:48.850Z,54.07
2018-05-08T20:13:18.460Z,53.60
2018-05-08T20:15:48.041Z,53.45
2018-05-08T20:18:17.623Z,53.57
2018-05-08T20:20:47.382Z,54.01
2018-05-08T20:23:16.990Z,53.42
2018-05-08T20:25:46.805Z,53.34
2018-05-08T20:28:16.340Z,54.48
2018-05-08T20:30:46.224Z,54.33
2018-05-08T20:33:15.820Z,54.31
2018-05-08T20:35:45.438Z,54.88
2018-05-08T20:38:16.272Z,55.13
2018-05-08T20:40:45.830Z,55.44
2018-05-08T20:43:15.476Z,55.48
2018-05-08T20:45:45.330Z,55.60
2018-05-08T20:48:15.083Z,56.36
2018-05-08T20:50:44.729Z,56.94
2018-05-08T20:53:14.496Z,56.96
2018-05-08T20:55:44.085Z,57.68
2018-05-08T20:58:13.899Z,57.46
2018-05-08T21:00:43.711Z,57.76
2018-05-08T21:03:13.540Z,58.12
2018-05-08T21:05:43.231Z,57.92
2018-05-08T21:08:12.857Z,58.65
2018-05-08T21:10:42.692Z,58.31
2018-05-08T21:13:12.495Z,58.55
2018-05-08T21:15:42.204Z,58.06
2018-05-08T21:18:11.924Z,58.52
2018-05-08T21:20:41.739Z,58.47
2018-05-08T21:23:11.464Z,58.75
2018-05-08T21:25:41.265Z,59.57
2018-05-08T21:28:15.062Z,59.57
2018-05-08T21:31:15.389Z,59.92
2018-05-08T21:33:45.029Z,60.28
2018-05-08T21:36:14.691Z,59.51
2018-05-08T21:38:44.469Z,59.58
2018-05-08T21:41:14.083Z,59.70
2018-05-08T21:43:43.749Z,60.04
2018-05-08T21:46:13.662Z,58.86
2018-05-08T21:48:43.494Z,59.34
2018-05-08T21:51:13.143Z,60.03
2018-05-08T21:53:42.967Z,59.74
2018-05-08T21:56:12.529Z,60.19
2018-05-08T21:58:42.135Z,60.85
2018-05-08T22:01:11.861Z,61.04
2018-05-08T22:03:41.465Z,60.72
2018-05-08T22:06:11.129Z,60.60
2018-05-08T22:08:40.960Z,60.92
2018-05-08T22:11:10.730Z,60.73
2018-05-08T22:13:40.294Z,60.83
2018-05-08T22:16:09.830Z,61.43
2018-05-08T22:18:39.432Z,61.99
2018-05-08T22:21:09.415Z,62.34
2018-05-08T22:23:39.096Z,62.47
2018-05-08T22:26:08.895Z,62.87
2018-05-08T22:28:38.636Z,62.94
2018-05-08T22:31:08.366Z,63.12
2018-05-08T22:33:38.102Z,63.99
2018-05-08T22:36:07.876Z,64.31
2018-05-08T22:38:37.544Z,64.34
2018-05-08T22:41:07.292Z,64.90
2018-05-08T22:43:37.079Z,64.60
2018-05-08T22:46:06.770Z,65.28
2018-05-08T22:48:36.503Z,65.61
2018-05-08T22:51:06.091Z,66.18
2018-05-08T22:53:35.823Z,66.00
2018-05-08T22:56:06.664Z,65.95
2018-05-08T22:58:36.247Z,66.04
2018-05-08T23:01:05.974Z,66.47
2018-05-08T23:03:35.657Z,66.82
2018-05-08T23:06:05.433Z,66.88
2018-05-08T23:08:35.172Z,66.72
2018-05-08T23:11:04.877Z,67.67
2018-05-08T23:13:34.551Z,67.68
2018-05-08T23:16:04.333Z,67.59
2018-05-08T23:18:34.116Z,68.34
2018-05-08T23:21:03.784Z,68.77
2018-05-08T23:23:33.555Z,69.56
2018-05-08T23:26:03.218Z,71.17
2018-05-08T23:28:32.873Z,72.35
2018-05-08T23:31:02.495Z,73.07
2018-05-08T23:33:32.146Z,72.84
2018-05-08T23:36:01.867Z,73.21
2018-05-08T23:38:31.549Z,73.44
2018-05-08T23:41:01.027Z,73.83
2018-05-08T23:43:30.759Z,74.36
2018-05-08T23:46:00.612Z,74.53
2018-05-08T23:48:30.226Z,74.17
2018-05-08T23:50:59.835Z,74.86
2018-05-08T23:53:29.604Z,74.68
2018-05-08T23:55:59.352Z,75.01
2018-05-08T23:58:29.079Z,75.34
